Hlavní strana
METAR-TAF:

METAR-TAF

Letiště :

Pula, Chorvatsko

zeměpisná šířka: 44-54N, zeměpisná délka: 013-55E, výška: 63 m

Aktuální stav počasí

Zpráva byla vytvořena před 15 minutami, v 17:00 UTC
Východoseverovýchodní vítr 19 kt
Teplota 8°C
Vlhkost vzduchu 53%
Tlak 1023 hPa
Viditelnost 10 km a více
Žádná oblačnost pod 1500 m, nevyskytují se cumulonimby.

METAR: LDPL 171700Z 07019KT CAVOK 08/M01 Q1023 TEMPO 06020G30KT

Čas: 18:15 (17:15 UTC)

Předpověď počasí

Zpráva byla vytvořena před 5 hodinami a 50 minutami, v 11:25 UTC
Předpověď platná od 17 v 12 UTC do 18 v 12 UTC
Východoseverovýchodní vítr 18 kt
Viditelnost 10 km a více
Žádná oblačnost pod 1500 m, nevyskytují se cumulonimby.
Pravděpodobnost 40% :
Dočasný
od 17 v 12 UTC do 18 v 10 UTC
Východoseverovýchodní vítr 20 kt s nárazy do 30 kt

TAF: LDPL 171125Z 1712/1812 06018KT CAVOK TX12/1712Z TN05/1805Z PROB40 TEMPO 1712/1810 06020G30KT

Stav a předpovědi počasí z více než 4 000 letišť (zprávy METAR a TAF).

Červené a žluté tečky na mapě představují dostupné meteorologické stanice.

Když kurzor umístíte na tečku, zobrazí se název stanice.

Pak kliknutím zobrazíte stav a předpověď počasí.

Chcete-li změnit mapu, kliknutím na zelené tlačítko se znaménkem +mapu přiblížíte, kliknutím na zelené tlačítko se znaménkem – mapu oddálíte a kliknutím na zelené šipky přejdete na sousední mapy.


METAR-TAF: